createdAt,value
2019-04-05T00:01:10.607Z,6.70
2019-04-05T00:03:45.359Z,6.50
2019-04-05T00:06:20.131Z,6.40
2019-04-05T00:08:55.003Z,6.50
2019-04-05T00:11:29.846Z,6.50
2019-04-05T00:14:04.568Z,6.40
2019-04-05T00:16:41.039Z,6.40
2019-04-05T00:19:15.746Z,6.40
2019-04-05T00:21:50.490Z,6.40
2019-04-05T00:24:25.294Z,6.30
2019-04-05T00:27:00.031Z,6.30
2019-04-05T00:29:34.752Z,6.30
2019-04-05T00:32:09.546Z,6.30
2019-04-05T00:34:44.258Z,6.40
2019-04-05T00:37:18.978Z,6.30
2019-04-05T00:39:53.768Z,6.20
2019-04-05T00:42:28.625Z,6.10
2019-04-05T00:45:04.343Z,5.90
2019-04-05T00:47:39.141Z,6.00
2019-04-05T00:50:13.980Z,6.00
2019-04-05T00:52:48.861Z,6.10
2019-04-05T00:55:23.644Z,6.20
2019-04-05T00:57:58.535Z,6.10
2019-04-05T01:00:33.320Z,5.80
2019-04-05T01:03:08.035Z,6.10
2019-04-05T01:05:43.220Z,6.20
2019-04-05T01:08:18.199Z,6.20
2019-04-05T01:10:52.977Z,6.20
2019-04-05T01:13:28.323Z,6.20
2019-04-05T01:16:03.184Z,6.20
2019-04-05T01:18:37.922Z,6.20
2019-04-05T01:21:15.646Z,6.20
2019-04-05T01:23:53.815Z,6.20
2019-04-05T01:26:29.576Z,6.20
2019-04-05T01:29:04.427Z,6.30
2019-04-05T01:31:39.278Z,6.30
2019-04-05T01:34:14.144Z,6.30
2019-04-05T01:36:48.994Z,6.20
2019-04-05T01:39:23.774Z,6.20
2019-04-05T01:41:58.623Z,6.20
2019-04-05T01:44:33.591Z,6.20
2019-04-05T01:47:08.442Z,6.20
2019-04-05T01:49:43.234Z,6.20
2019-04-05T01:52:18.050Z,6.20
2019-04-05T01:54:52.842Z,6.20
2019-04-05T01:57:27.610Z,6.20
2019-04-05T02:00:02.411Z,6.20
2019-04-05T02:02:37.171Z,6.20
2019-04-05T02:05:12.161Z,6.20
2019-04-05T02:07:47.035Z,6.20
2019-04-05T02:10:21.899Z,6.20
2019-04-05T02:12:56.802Z,6.20
2019-04-05T02:15:33.748Z,6.10
2019-04-05T02:18:08.670Z,6.00
2019-04-05T02:20:43.481Z,6.00
2019-04-05T02:23:18.322Z,5.80
2019-04-05T02:25:54.203Z,5.70
2019-04-05T02:28:29.051Z,5.70
2019-04-05T02:31:03.874Z,5.90
2019-04-05T02:33:38.783Z,6.00
2019-04-05T02:36:13.586Z,6.10
2019-04-05T02:38:48.431Z,6.20
2019-04-05T02:41:25.105Z,6.20
2019-04-05T02:44:01.148Z,6.30
2019-04-05T02:46:36.217Z,6.30
2019-04-05T02:49:11.465Z,6.30
2019-04-05T02:51:48.730Z,6.30
2019-04-05T02:54:23.861Z,6.30
2019-04-05T02:56:59.650Z,6.30
2019-04-05T02:59:35.372Z,6.40
2019-04-05T03:02:10.890Z,6.40
2019-04-05T03:04:45.836Z,6.40
2019-04-05T03:07:21.151Z,6.40
2019-04-05T03:09:58.932Z,6.30
2019-04-05T03:12:35.174Z,6.40
2019-04-05T03:15:11.184Z,6.50
2019-04-05T03:17:46.178Z,6.50
2019-04-05T03:20:21.184Z,6.50
2019-04-05T03:22:56.264Z,6.50
2019-04-05T03:25:31.262Z,6.50
2019-04-05T03:28:06.272Z,6.50
2019-04-05T03:30:41.473Z,6.60
2019-04-05T03:33:16.362Z,6.60
2019-04-05T03:35:51.344Z,6.50
2019-04-05T03:38:26.396Z,6.70
2019-04-05T03:41:01.824Z,6.70
2019-04-05T03:43:36.757Z,6.90
2019-04-05T03:46:12.789Z,6.90
2019-04-05T03:48:48.327Z,6.80
2019-04-05T03:51:24.131Z,6.70
2019-04-05T03:53:59.381Z,6.80
2019-04-05T03:56:37.958Z,6.70
2019-04-05T03:59:12.192Z,6.80
2019-04-05T04:01:47.296Z,6.70
2019-04-05T04:04:22.416Z,6.70
2019-04-05T04:07:04.460Z,6.70
2019-04-05T04:09:39.535Z,6.70
2019-04-05T04:12:14.620Z,6.70
2019-04-05T04:14:50.454Z,6.70
2019-04-05T04:17:25.356Z,6.70
2019-04-05T04:20:00.380Z,6.70
2019-04-05T04:22:35.631Z,6.70
2019-04-05T04:25:10.532Z,6.70
2019-04-05T04:27:45.649Z,6.80
2019-04-05T04:30:20.551Z,6.80
2019-04-05T04:32:56.010Z,6.80
2019-04-05T04:35:31.031Z,6.80
2019-04-05T04:38:07.129Z,6.70
2019-04-05T04:40:42.440Z,6.70
2019-04-05T04:43:17.622Z,6.50
2019-04-05T04:45:52.528Z,6.30
2019-04-05T04:48:29.504Z,6.40
2019-04-05T04:51:04.719Z,6.50
2019-04-05T04:53:39.707Z,6.60
2019-04-05T04:56:14.697Z,6.60
2019-04-05T04:58:49.648Z,6.60
2019-04-05T05:01:24.947Z,6.70
2019-04-05T05:04:00.542Z,6.80
2019-04-05T05:06:35.439Z,6.70
2019-04-05T05:09:11.436Z,6.70
2019-04-05T05:11:46.399Z,6.80
2019-04-05T05:14:21.475Z,7.40
2019-04-05T05:16:56.481Z,7.50
2019-04-05T05:19:31.519Z,7.30
2019-04-05T05:22:25.875Z,7.20
2019-04-05T05:25:01.154Z,7.10
2019-04-05T05:27:36.763Z,7.70
2019-04-05T05:30:11.947Z,7.50
2019-04-05T05:32:47.008Z,7.30
2019-04-05T05:35:21.886Z,7.20
2019-04-05T05:37:56.976Z,7.00
2019-04-05T05:40:35.037Z,6.80
2019-04-05T05:43:10.363Z,6.70
2019-04-05T05:45:45.284Z,6.60
2019-04-05T05:48:20.553Z,6.70
2019-04-05T05:50:55.760Z,6.70
2019-04-05T05:53:30.660Z,6.60
2019-04-05T05:56:05.663Z,6.60
2019-04-05T05:58:40.415Z,6.60
2019-04-05T06:01:18.176Z,6.60
2019-04-05T06:03:53.107Z,6.60
2019-04-05T06:06:28.035Z,6.70
2019-04-05T06:09:04.496Z,6.70
2019-04-05T06:11:39.312Z,6.80
2019-04-05T06:14:15.116Z,6.90
2019-04-05T06:16:50.075Z,6.90
2019-04-05T06:19:24.994Z,6.80
2019-04-05T06:22:02.995Z,6.80
2019-04-05T06:24:39.379Z,6.80
2019-04-05T06:27:14.282Z,6.80
2019-04-05T06:29:49.101Z,6.90
2019-04-05T06:32:23.999Z,6.90
2019-04-05T06:34:58.837Z,6.90
2019-04-05T06:37:33.748Z,6.90
2019-04-05T06:40:08.761Z,6.90
2019-04-05T06:42:43.651Z,6.90
2019-04-05T06:45:18.487Z,6.80
2019-04-05T06:47:53.395Z,6.90
2019-04-05T06:50:28.299Z,6.90
2019-04-05T06:53:03.103Z,6.80
2019-04-05T06:55:38.985Z,6.80
2019-04-05T06:58:19.799Z,6.80
2019-04-05T07:00:57.050Z,6.90
2019-04-05T07:03:26.820Z,6.90
2019-04-05T07:06:01.665Z,6.90
2019-04-05T07:08:36.524Z,6.90
2019-04-05T07:11:11.304Z,6.90
2019-04-05T07:13:46.198Z,7.00
2019-04-05T07:16:21.104Z,7.10
2019-04-05T07:18:55.923Z,7.10
2019-04-05T07:21:30.736Z,7.10
2019-04-05T07:24:05.576Z,7.10
2019-04-05T07:26:40.395Z,7.20
2019-04-05T07:29:15.342Z,7.20
2019-04-05T07:31:50.281Z,7.20
2019-04-05T07:34:25.119Z,7.20
2019-04-05T07:36:59.943Z,7.30
2019-04-05T07:39:34.755Z,7.30
2019-04-05T07:42:09.588Z,7.40
2019-04-05T07:44:44.395Z,7.40
2019-04-05T07:47:19.152Z,7.40
2019-04-05T07:49:54.011Z,7.50
2019-04-05T07:52:28.983Z,7.40
2019-04-05T07:55:04.131Z,7.50
2019-04-05T07:57:38.959Z,7.40
2019-04-05T08:00:43.071Z,7.40
2019-04-05T08:03:18.318Z,7.50
2019-04-05T08:05:53.511Z,7.60
2019-04-05T08:08:46.759Z,7.60
2019-04-05T08:11:22.964Z,7.60
2019-04-05T08:14:00.524Z,7.60
2019-04-05T08:16:35.415Z,7.70
2019-04-05T08:19:10.399Z,7.70
2019-04-05T08:21:45.219Z,7.60
2019-04-05T08:24:19.991Z,7.60
2019-04-05T08:26:54.755Z,7.60
2019-04-05T08:29:29.712Z,7.70
2019-04-05T08:32:14.528Z,7.70
2019-04-05T08:34:42.227Z,7.70
2019-04-05T08:37:16.977Z,7.70
2019-04-05T08:39:51.947Z,7.60
2019-04-05T08:42:26.879Z,7.60
2019-04-05T08:45:01.703Z,7.80
2019-04-05T08:47:36.628Z,8.00
2019-04-05T08:50:11.558Z,8.10
2019-04-05T08:52:46.291Z,8.20
2019-04-05T08:55:21.187Z,8.10
2019-04-05T08:57:56.984Z,8.20
2019-04-05T09:00:31.803Z,8.30
2019-04-05T09:03:06.705Z,8.40
2019-04-05T09:05:41.660Z,8.20
2019-04-05T09:08:16.511Z,8.00
2019-04-05T09:10:54.618Z,8.30
2019-04-05T09:13:28.913Z,8.50
2019-04-05T09:16:03.735Z,8.50
2019-04-05T09:18:38.474Z,8.50
2019-04-05T09:21:13.284Z,8.20
2019-04-05T09:23:48.112Z,7.90
2019-04-05T09:26:24.131Z,7.90
2019-04-05T09:28:58.927Z,8.20
2019-04-05T09:31:33.832Z,8.20
2019-04-05T09:34:08.563Z,8.30
2019-04-05T09:36:43.480Z,8.30
2019-04-05T09:39:18.247Z,8.40
2019-04-05T09:41:53.067Z,8.60
2019-04-05T09:44:27.810Z,8.60
2019-04-05T09:47:02.657Z,8.60
2019-04-05T09:49:37.483Z,8.50
2019-04-05T09:52:12.284Z,8.50
2019-04-05T09:54:47.047Z,8.60
2019-04-05T09:57:21.931Z,8.50
2019-04-05T09:59:57.467Z,8.60
2019-04-05T10:02:32.208Z,8.60
2019-04-05T10:05:07.277Z,8.70
2019-04-05T10:07:54.179Z,8.70
2019-04-05T10:10:18.779Z,8.80
2019-04-05T10:12:53.646Z,8.90
2019-04-05T10:15:28.518Z,8.60
2019-04-05T10:18:03.423Z,8.40
2019-04-05T10:20:39.052Z,8.50
2019-04-05T10:23:13.960Z,8.50
2019-04-05T10:25:48.737Z,8.70
2019-04-05T10:28:23.588Z,8.70
2019-04-05T10:30:58.335Z,8.80
2019-04-05T10:33:33.093Z,8.80
2019-04-05T10:36:07.921Z,8.80
2019-04-05T10:38:42.733Z,9.00
2019-04-05T10:41:17.512Z,8.90
2019-04-05T10:43:52.455Z,8.80
2019-04-05T10:46:27.607Z,8.80
2019-04-05T10:49:02.431Z,8.90
2019-04-05T10:51:37.259Z,9.10
2019-04-05T10:54:11.992Z,9.20
2019-04-05T10:56:46.748Z,9.20
2019-04-05T10:59:21.664Z,9.20
2019-04-05T11:01:56.407Z,9.10
2019-04-05T11:04:31.314Z,9.20
2019-04-05T11:07:06.148Z,9.10
2019-04-05T11:09:41.049Z,9.10
2019-04-05T11:12:15.889Z,9.10
2019-04-05T11:14:50.763Z,9.20
2019-04-05T11:17:25.651Z,9.40
2019-04-05T11:20:00.445Z,9.40
2019-04-05T11:22:35.248Z,9.50
2019-04-05T11:25:10.652Z,9.50
2019-04-05T11:27:45.621Z,9.60
2019-04-05T11:30:41.761Z,9.60
2019-04-05T11:33:28.995Z,9.80
2019-04-05T11:36:05.599Z,9.80
2019-04-05T11:38:41.996Z,9.70
2019-04-05T11:41:17.202Z,9.80
2019-04-05T11:43:52.799Z,9.90
2019-04-05T11:46:30.604Z,9.90
2019-04-05T11:49:05.749Z,10.00
2019-04-05T11:51:43.184Z,10.00
2019-04-05T11:54:18.516Z,10.10
2019-04-05T11:56:53.800Z,10.20
2019-04-05T11:59:28.703Z,10.20
2019-04-05T12:02:13.908Z,10.30
2019-04-05T12:04:48.741Z,10.20
2019-04-05T12:07:26.246Z,10.20
2019-04-05T12:10:00.087Z,10.30
2019-04-05T12:12:35.068Z,10.20
2019-04-05T12:15:10.678Z,10.30
2019-04-05T12:17:45.490Z,10.20
2019-04-05T12:20:20.442Z,10.20
2019-04-05T12:22:56.272Z,10.20
2019-04-05T12:25:31.813Z,10.20
2019-04-05T12:28:10.611Z,10.30
2019-04-05T12:30:46.575Z,10.30
2019-04-05T12:33:21.694Z,10.20
2019-04-05T12:35:56.938Z,10.10
2019-04-05T12:38:33.119Z,10.20
2019-04-05T12:41:10.694Z,10.20
2019-04-05T12:43:44.942Z,10.20
2019-04-05T12:46:19.759Z,10.40
2019-04-05T12:48:54.514Z,10.40
2019-04-05T12:51:29.331Z,10.40
2019-04-05T12:54:04.231Z,10.30
2019-04-05T12:56:39.183Z,10.50
2019-04-05T12:59:14.127Z,10.40
2019-04-05T13:01:48.952Z,10.30
2019-04-05T13:04:23.845Z,10.30
2019-04-05T13:06:58.691Z,10.20
2019-04-05T13:09:33.516Z,10.40
2019-04-05T13:12:08.321Z,10.40
2019-04-05T13:14:43.147Z,10.50
2019-04-05T13:17:18.008Z,10.40
2019-04-05T13:19:52.900Z,10.50
2019-04-05T13:22:27.637Z,10.40
2019-04-05T13:25:02.552Z,10.40
2019-04-05T13:27:37.373Z,10.40
2019-04-05T13:30:12.977Z,10.40
2019-04-05T13:32:47.807Z,10.50
2019-04-05T13:35:22.691Z,10.50
2019-04-05T13:37:58.527Z,10.40
2019-04-05T13:40:34.056Z,10.40
2019-04-05T13:43:09.044Z,10.50
2019-04-05T13:45:43.924Z,10.50
2019-04-05T13:48:18.690Z,10.50
2019-04-05T13:50:54.664Z,10.50
2019-04-05T13:53:29.502Z,10.50
2019-04-05T13:56:04.404Z,10.60
2019-04-05T13:58:39.558Z,10.60
2019-04-05T14:01:15.772Z,10.60
2019-04-05T14:03:51.067Z,10.50
2019-04-05T14:06:25.948Z,10.60
2019-04-05T14:09:01.986Z,10.60
2019-04-05T14:11:39.447Z,10.50
2019-04-05T14:14:15.880Z,10.50
2019-04-05T14:16:53.858Z,10.70
2019-04-05T14:19:30.999Z,10.70
2019-04-05T14:22:08.799Z,10.70
2019-04-05T14:24:42.391Z,10.70
2019-04-05T14:27:17.239Z,10.70
2019-04-05T14:29:52.250Z,10.70
2019-04-05T14:32:27.147Z,10.70
2019-04-05T14:35:02.039Z,10.70
2019-04-05T14:37:36.937Z,10.70
2019-04-05T14:40:14.011Z,10.60
2019-04-05T14:42:49.228Z,10.60
2019-04-05T14:45:24.141Z,10.40
2019-04-05T14:47:58.887Z,10.30
2019-04-05T14:50:33.766Z,10.20
2019-04-05T14:53:09.577Z,10.20
2019-04-05T14:55:47.598Z,10.20
2019-04-05T14:58:24.850Z,10.20
2019-04-05T15:00:59.733Z,10.20
2019-04-05T15:03:35.025Z,10.10
2019-04-05T15:06:13.990Z,10.10
2019-04-05T15:08:52.145Z,10.00
2019-04-05T15:11:28.593Z,10.00
2019-04-05T15:14:02.243Z,10.10
2019-04-05T15:16:37.149Z,10.30
2019-04-05T15:19:12.033Z,10.30
2019-04-05T15:24:40.779Z,10.30
2019-04-05T15:27:15.695Z,10.20
2019-04-05T15:29:50.440Z,10.20
2019-04-05T15:32:26.120Z,10.00
2019-04-05T15:35:01.559Z,9.90
2019-04-05T15:37:37.706Z,9.90
2019-04-05T15:40:13.280Z,10.00
2019-04-05T15:42:48.299Z,9.90
2019-04-05T15:45:23.131Z,10.00
2019-04-05T15:47:58.099Z,9.90
2019-04-05T15:50:32.902Z,9.70
2019-04-05T15:53:07.869Z,9.70
2019-04-05T15:55:42.876Z,9.70
2019-04-05T15:58:17.777Z,9.70
2019-04-05T16:00:52.700Z,9.90
2019-04-05T16:03:27.676Z,9.80
2019-04-05T16:06:02.560Z,9.80
2019-04-05T16:08:40.139Z,9.80
2019-04-05T16:11:26.318Z,9.80
2019-04-05T16:14:04.376Z,10.10
2019-04-05T16:16:39.286Z,10.00
2019-04-05T16:19:14.277Z,9.90
2019-04-05T16:22:01.379Z,9.70
2019-04-05T16:24:38.287Z,9.70
2019-04-05T16:27:18.518Z,9.60
2019-04-05T16:29:53.291Z,9.70
2019-04-05T16:32:47.456Z,9.80
2019-04-05T16:35:22.304Z,10.00
2019-04-05T16:38:01.398Z,9.90
2019-04-05T16:40:36.192Z,9.90
2019-04-05T16:43:10.995Z,10.10
2019-04-05T16:46:05.048Z,10.10
2019-04-05T16:48:39.863Z,10.10
2019-04-05T16:51:15.033Z,10.00
2019-04-05T16:54:03.361Z,10.00
2019-04-05T16:56:38.504Z,10.00
2019-04-05T16:59:13.830Z,10.00
2019-04-05T17:01:50.848Z,10.00
2019-04-05T17:04:25.775Z,10.10
2019-04-05T17:07:00.600Z,10.00
2019-04-05T17:09:35.554Z,10.00
2019-04-05T17:12:10.436Z,10.00
2019-04-05T17:14:45.532Z,10.00
2019-04-05T17:17:23.787Z,10.00
2019-04-05T17:19:58.806Z,10.00
2019-04-05T17:22:33.723Z,10.10
2019-04-05T17:25:12.822Z,10.10
2019-04-05T17:27:53.661Z,10.00
2019-04-05T17:30:28.483Z,10.00
2019-04-05T17:33:04.431Z,10.20
2019-04-05T17:35:39.264Z,10.20
2019-04-05T17:38:14.008Z,10.30
2019-04-05T17:40:50.479Z,10.30
2019-04-05T17:46:19.477Z,10.20
2019-04-05T17:49:05.733Z,10.20
2019-04-05T17:51:48.022Z,10.10
2019-04-05T17:54:22.947Z,10.30
2019-04-05T17:57:04.943Z,10.40
2019-04-05T17:59:42.547Z,10.50
2019-04-05T18:02:17.528Z,10.60
2019-04-05T18:04:57.184Z,10.60
2019-04-05T18:07:35.368Z,10.60
2019-04-05T18:10:10.468Z,10.70
2019-04-05T18:13:04.541Z,10.70
2019-04-05T18:18:33.955Z,10.60
2019-04-05T18:21:08.808Z,10.60
2019-04-05T18:23:43.640Z,10.70
2019-04-05T18:26:18.511Z,10.70
2019-04-05T18:28:53.451Z,10.70
2019-04-05T18:31:28.268Z,10.50
2019-04-05T18:34:03.124Z,10.50
2019-04-05T18:36:38.100Z,10.60
2019-04-05T18:39:13.115Z,10.70
2019-04-05T18:41:47.924Z,10.50
2019-04-05T18:44:22.850Z,10.40
2019-04-05T18:47:03.415Z,10.40
2019-04-05T18:49:38.423Z,10.30
2019-04-05T18:52:13.510Z,10.10
2019-04-05T18:54:53.706Z,10.10
2019-04-05T18:57:30.035Z,10.20
2019-04-05T19:00:08.279Z,10.20
2019-04-05T19:02:43.224Z,10.00
2019-04-05T19:05:18.361Z,9.70
2019-04-05T19:07:53.475Z,9.80
2019-04-05T19:10:36.878Z,9.90
2019-04-05T19:13:05.538Z,10.00
2019-04-05T19:15:40.720Z,10.00
2019-04-05T19:18:17.897Z,10.10
2019-04-05T19:21:12.405Z,10.20
2019-04-05T19:23:52.052Z,10.20
2019-04-05T19:26:28.459Z,10.30
2019-04-05T19:29:03.430Z,10.40
2019-04-05T19:50:19.300Z,10.40
2019-04-05T19:52:55.439Z,10.40
2019-04-05T19:55:56.449Z,10.40
2019-04-05T19:58:31.311Z,10.40
2019-04-05T20:01:15.308Z,10.40
2019-04-05T20:03:50.231Z,10.40
2019-04-05T20:06:25.315Z,11.20
2019-04-05T20:09:10.240Z,11.80
2019-04-05T20:11:49.367Z,12.00
2019-04-05T20:14:27.420Z,11.70
2019-04-05T20:17:02.668Z,11.50
2019-04-05T20:19:37.862Z,11.30
2019-04-05T20:22:25.748Z,11.20
2019-04-05T20:25:00.745Z,11.10
2019-04-05T20:27:37.147Z,10.90
2019-04-05T20:30:20.862Z,10.90
2019-04-05T20:32:58.504Z,10.90
2019-04-05T20:35:52.844Z,10.80
2019-04-05T20:39:10.574Z,10.70
2019-04-05T20:41:47.600Z,10.60
2019-04-05T20:44:22.599Z,10.60
2019-04-05T20:46:57.428Z,10.60
2019-04-05T20:49:32.889Z,10.60
2019-04-05T20:52:11.094Z,10.60
2019-04-05T20:57:53.089Z,10.60
2019-04-05T21:00:28.140Z,10.40
2019-04-05T21:03:03.159Z,10.40
2019-04-05T21:06:17.309Z,10.40
2019-04-05T21:08:54.172Z,10.30
2019-04-05T21:11:28.921Z,10.30
2019-04-05T21:14:26.479Z,10.30
2019-04-05T21:17:05.686Z,10.20
2019-04-05T21:19:42.855Z,10.20
2019-04-05T21:25:14.841Z,10.10
2019-04-05T21:27:49.655Z,10.00
2019-04-05T21:30:24.515Z,9.90
2019-04-05T21:32:59.337Z,9.80
2019-04-05T21:35:34.075Z,9.80
2019-04-05T21:38:08.828Z,9.70
2019-04-05T21:40:44.626Z,9.70
2019-04-05T21:43:19.376Z,9.50
2019-04-05T21:45:54.207Z,9.50
2019-04-05T21:48:30.610Z,9.40
2019-04-05T21:51:06.663Z,9.00
2019-04-05T21:53:42.623Z,9.00
2019-04-05T21:56:17.448Z,9.10
2019-04-05T21:58:52.254Z,9.10
2019-04-05T22:01:27.558Z,9.10
2019-04-05T22:04:04.492Z,9.10
2019-04-05T22:06:39.299Z,9.10
2019-04-05T22:09:14.191Z,9.00
2019-04-05T22:11:48.955Z,9.00
2019-04-05T22:14:23.687Z,9.10
2019-04-05T22:16:58.507Z,8.90
2019-04-05T22:19:33.273Z,9.00
2019-04-05T22:22:08.135Z,9.00
2019-04-05T22:24:42.960Z,9.00
2019-04-05T22:27:17.766Z,9.00
2019-04-05T22:29:54.395Z,9.00
2019-04-05T22:32:29.237Z,9.00
2019-04-05T22:35:04.272Z,9.00
2019-04-05T22:37:39.064Z,9.00
2019-04-05T22:40:14.260Z,9.00
2019-04-05T22:42:50.076Z,9.00
2019-04-05T22:45:24.896Z,9.00
2019-04-05T22:48:00.631Z,8.90
2019-04-05T22:50:36.439Z,8.70
2019-04-05T22:53:11.152Z,8.50
2019-04-05T22:55:46.168Z,8.60
2019-04-05T22:58:20.968Z,8.60
2019-04-05T23:00:56.863Z,8.60
2019-04-05T23:03:31.595Z,8.50
2019-04-05T23:06:06.508Z,8.50
2019-04-05T23:08:41.240Z,8.40
2019-04-05T23:11:15.991Z,8.40
2019-04-05T23:13:51.899Z,8.40
2019-04-05T23:16:26.789Z,8.40
2019-04-05T23:19:01.511Z,8.40
2019-04-05T23:21:36.259Z,8.40
2019-04-05T23:24:11.071Z,8.40
2019-04-05T23:26:45.903Z,8.30
2019-04-05T23:29:20.703Z,8.40
2019-04-05T23:31:55.544Z,8.40
2019-04-05T23:34:30.279Z,8.50
2019-04-05T23:37:05.108Z,8.40
2019-04-05T23:39:39.837Z,8.30
2019-04-05T23:42:14.599Z,8.30
2019-04-05T23:44:49.335Z,8.20
2019-04-05T23:47:24.163Z,8.10
2019-04-05T23:50:00.110Z,8.10
2019-04-05T23:52:35.355Z,7.90
2019-04-05T23:55:11.259Z,7.80
2019-04-05T23:57:46.139Z,7.70
